Time;durP1;ratioP1;P1;durP2;ratioP2;P2;SDS_P1;SDS_P2;PMS_P1;PMS_P2;Temp;Humidity;BMP_temperature;BMP_pressure;BME280_temperature;BME280_humidity;BME280_pressure;Samples;Min_cycle;Max_cycle;Signal;HPM_P1;HPM_P2
2024/01/06 00:00:57;;;;;;;20.10;9.52;;;2.10;99.90;;;;;;5041377;28;20490;-67
2024/01/06 00:03:22;;;;;;;19.60;10.18;;;2.10;99.90;;;;;;5039012;28;20057;-67
2024/01/06 00:05:48;;;;;;;18.95;9.35;;;2.00;99.90;;;;;;5040934;28;20033;-71
2024/01/06 00:08:13;;;;;;;19.83;9.85;;;2.00;99.90;;;;;;5040088;28;20053;-68
2024/01/06 00:10:39;;;;;;;20.60;10.48;;;2.10;99.90;;;;;;5041069;28;20044;-68
2024/01/06 00:13:04;;;;;;;19.83;9.88;;;2.10;99.90;;;;;;5043480;28;20025;-70
2024/01/06 00:15:30;;;;;;;20.67;10.05;;;2.10;99.90;;;;;;5045196;28;20026;-68
2024/01/06 00:17:56;;;;;;;18.65;10.05;;;2.00;99.90;;;;;;5044655;28;20104;-68
2024/01/06 00:20:21;;;;;;;19.67;9.25;;;2.10;99.90;;;;;;5044412;28;20037;-68
2024/01/06 00:22:47;;;;;;;19.33;10.00;;;2.10;99.90;;;;;;5042461;28;20060;-69
2024/01/06 00:25:13;;;;;;;18.88;9.77;;;2.00;99.90;;;;;;5044019;28;20017;-68
2024/01/06 00:27:38;;;;;;;20.13;10.00;;;2.00;99.90;;;;;;5044976;28;20056;-68
2024/01/06 00:30:05;;;;;;;18.42;9.57;;;2.10;99.90;;;;;;5044459;28;20021;-68
2024/01/06 00:32:30;;;;;;;21.27;10.00;;;2.10;99.90;;;;;;5042822;28;20031;-70
2024/01/06 00:34:56;;;;;;;21.40;9.95;;;2.10;99.90;;;;;;5045057;28;20053;-69
2024/01/06 00:37:21;;;;;;;19.40;9.80;;;2.10;99.90;;;;;;5043308;28;20042;-68
2024/01/06 00:39:47;;;;;;;20.90;10.55;;;2.10;99.90;;;;;;5044483;28;20021;-69
2024/01/06 00:42:12;;;;;;;18.40;9.60;;;2.10;99.90;;;;;;5044376;28;20022;-68
2024/01/06 00:44:38;;;;;;;16.65;9.05;;;2.10;99.90;;;;;;5044313;28;20052;-69
2024/01/06 00:47:04;;;;;;;21.00;9.82;;;2.10;99.90;;;;;;5042416;28;20026;-69
2024/01/06 00:49:30;;;;;;;18.88;9.80;;;2.10;99.90;;;;;;5043147;28;20466;-69
2024/01/06 00:51:55;;;;;;;18.83;9.68;;;2.10;99.90;;;;;;5042978;28;20017;-68
2024/01/06 00:54:21;;;;;;;16.45;8.93;;;2.10;99.90;;;;;;5043041;28;20033;-68
2024/01/06 00:56:46;;;;;;;23.95;9.15;;;2.10;99.90;;;;;;5043576;28;20072;-71
2024/01/06 00:59:12;;;;;;;17.98;8.55;;;2.00;99.90;;;;;;5043825;28;20021;-68
2024/01/06 01:01:37;;;;;;;16.63;8.13;;;2.00;99.90;;;;;;5044156;28;20136;-68
2024/01/06 01:04:03;;;;;;;15.23;8.52;;;2.00;99.90;;;;;;5043934;28;20041;-68
2024/01/06 01:06:29;;;;;;;14.15;7.70;;;2.00;99.90;;;;;;5043758;28;20044;-70
2024/01/06 01:08:54;;;;;;;19.02;8.40;;;2.00;99.90;;;;;;5042718;28;20406;-70
2024/01/06 01:11:20;;;;;;;17.80;8.10;;;2.00;99.90;;;;;;5044100;28;20021;-68
2024/01/06 01:13:46;;;;;;;15.43;8.30;;;1.90;99.90;;;;;;5043842;28;20142;-68
2024/01/06 01:16:11;;;;;;;13.88;7.53;;;1.90;99.90;;;;;;5043920;28;20064;-69
2024/01/06 01:18:37;;;;;;;19.42;8.80;;;1.90;99.90;;;;;;5043802;28;20044;-69
2024/01/06 01:21:02;;;;;;;16.00;8.20;;;1.90;99.90;;;;;;5043512;28;20037;-69
2024/01/06 01:23:28;;;;;;;14.02;7.47;;;1.90;99.90;;;;;;5043430;28;20036;-70
2024/01/06 01:25:54;;;;;;;14.73;7.65;;;2.00;99.90;;;;;;5042409;28;20033;-69
2024/01/06 01:28:20;;;;;;;15.82;8.27;;;2.00;99.90;;;;;;5043311;28;20462;-69
2024/01/06 01:30:46;;;;;;;15.27;7.78;;;2.00;99.90;;;;;;5043725;28;20030;-68
2024/01/06 01:33:11;;;;;;;16.55;7.88;;;2.00;99.90;;;;;;5043158;28;20032;-69
2024/01/06 01:35:37;;;;;;;16.20;8.02;;;2.00;99.90;;;;;;5043579;28;20045;-70
2024/01/06 01:38:03;;;;;;;13.40;7.53;;;2.00;99.90;;;;;;5043588;28;20057;-71
2024/01/06 01:40:28;;;;;;;13.98;7.53;;;2.00;99.90;;;;;;5043342;28;20101;-71
2024/01/06 01:42:54;;;;;;;13.90;7.82;;;2.00;99.90;;;;;;5042217;28;20116;-69
2024/01/06 01:45:19;;;;;;;16.63;8.20;;;2.00;99.90;;;;;;5043571;28;20029;-70
2024/01/06 01:47:45;;;;;;;16.65;8.20;;;1.90;99.90;;;;;;5043073;28;20083;-70
2024/01/06 01:50:12;;;;;;;14.68;8.23;;;1.90;99.90;;;;;;5043165;28;20085;-69
2024/01/06 01:52:40;;;;;;;17.30;8.70;;;1.90;99.90;;;;;;5041548;28;20063;-70
2024/01/06 01:55:06;;;;;;;14.77;7.97;;;1.90;99.90;;;;;;5042987;28;20037;-70
2024/01/06 01:57:32;;;;;;;17.20;8.00;;;1.90;99.90;;;;;;5043207;28;20030;-70
2024/01/06 01:59:57;;;;;;;15.25;7.93;;;1.90;99.90;;;;;;5041215;28;20064;-70
2024/01/06 02:02:23;;;;;;;14.48;7.45;;;1.90;99.90;;;;;;5043056;28;20032;-70
2024/01/06 02:04:49;;;;;;;17.05;8.30;;;1.90;99.90;;;;;;5042811;28;20055;-70
2024/01/06 02:07:14;;;;;;;15.75;8.55;;;1.90;99.90;;;;;;5041378;28;20044;-71
2024/01/06 02:09:40;;;;;;;21.08;9.00;;;1.90;99.90;;;;;;5042708;28;20033;-70
2024/01/06 02:12:06;;;;;;;17.63;8.63;;;1.90;99.90;;;;;;5041656;28;20087;-72
2024/01/06 02:14:32;;;;;;;16.15;8.25;;;1.90;99.90;;;;;;5042756;28;20033;-70
2024/01/06 02:16:58;;;;;;;16.20;8.52;;;1.90;99.90;;;;;;5042755;28;20048;-70
2024/01/06 02:19:24;;;;;;;16.65;8.38;;;1.90;99.90;;;;;;5043188;28;20029;-72
2024/01/06 02:21:53;;;;;;;16.10;8.10;;;1.90;99.90;;;;;;5042460;28;20018;-71
2024/01/06 02:24:19;;;;;;;19.83;9.20;;;1.90;99.90;;;;;;5042415;28;20096;-69
2024/01/06 02:26:45;;;;;;;19.40;8.63;;;1.80;99.90;;;;;;5041848;28;20022;-70
2024/01/06 02:29:10;;;;;;;15.35;8.20;;;1.80;99.90;;;;;;5041877;28;20042;-70
2024/01/06 02:31:36;;;;;;;17.13;7.97;;;1.80;99.90;;;;;;5040971;28;20018;-70
2024/01/06 02:34:02;;;;;;;15.32;8.43;;;1.80;99.90;;;;;;5040819;28;20029;-70
2024/01/06 02:36:27;;;;;;;17.15;8.75;;;1.80;99.90;;;;;;5040809;28;20029;-71
2024/01/06 02:38:53;;;;;;;16.30;8.75;;;1.80;99.90;;;;;;5042452;28;20033;-70
2024/01/06 02:41:18;;;;;;;13.93;7.55;;;1.70;99.90;;;;;;5040939;28;20680;-69
2024/01/06 02:43:44;;;;;;;14.95;7.35;;;1.70;99.90;;;;;;5041475;28;20041;-71
2024/01/06 02:46:09;;;;;;;16.10;8.23;;;1.70;99.90;;;;;;5039888;28;20079;-71
2024/01/06 02:48:35;;;;;;;15.60;7.18;;;1.70;99.90;;;;;;5040784;28;20127;-72
2024/01/06 02:51:00;;;;;;;13.38;7.35;;;1.70;99.90;;;;;;5042012;28;20476;-71
2024/01/06 02:53:26;;;;;;;12.38;6.97;;;1.70;99.90;;;;;;5042365;28;20033;-70
2024/01/06 02:55:51;;;;;;;14.18;7.55;;;1.70;99.90;;;;;;5040638;28;20021;-70
2024/01/06 02:58:17;;;;;;;15.10;7.90;;;1.70;99.90;;;;;;5040775;28;20014;-69
2024/01/06 03:00:42;;;;;;;15.35;7.25;;;1.60;99.90;;;;;;5041780;28;20025;-71
2024/01/06 03:03:08;;;;;;;18.25;7.97;;;1.60;99.90;;;;;;5041680;28;20100;-71
2024/01/06 03:05:34;;;;;;;15.68;7.88;;;1.60;99.90;;;;;;5041355;28;20028;-70
2024/01/06 03:07:59;;;;;;;17.50;8.07;;;1.60;99.90;;;;;;5041889;28;20044;-70
2024/01/06 03:10:25;;;;;;;15.60;7.78;;;1.60;99.90;;;;;;5041967;28;20077;-69
2024/01/06 03:12:51;;;;;;;14.82;7.93;;;1.60;99.90;;;;;;5041730;28;20049;-69
2024/01/06 03:15:16;;;;;;;16.08;8.07;;;1.60;99.90;;;;;;5040736;28;20033;-70
2024/01/06 03:17:42;;;;;;;16.25;7.53;;;1.60;99.90;;;;;;5039316;28;20032;-70
2024/01/06 03:20:09;;;;;;;14.13;7.25;;;1.60;99.90;;;;;;5041535;28;20037;-71
2024/01/06 03:22:34;;;;;;;18.17;8.15;;;1.50;99.90;;;;;;5041711;28;20037;-71
2024/01/06 03:25:00;;;;;;;15.90;8.05;;;1.50;99.90;;;;;;5039850;28;20018;-70
2024/01/06 03:27:25;;;;;;;14.25;7.72;;;1.60;99.90;;;;;;5041571;28;20051;-72
2024/01/06 03:29:51;;;;;;;14.88;7.35;;;1.60;99.90;;;;;;5040326;28;20021;-70
2024/01/06 03:32:17;;;;;;;15.02;7.65;;;1.60;99.90;;;;;;5041157;28;20026;-72
2024/01/06 03:34:42;;;;;;;14.60;7.72;;;1.60;99.90;;;;;;5041800;28;20036;-70
2024/01/06 03:37:08;;;;;;;13.73;7.72;;;1.60;99.90;;;;;;5041667;28;20029;-69
2024/01/06 03:39:34;;;;;;;15.50;8.10;;;1.60;99.90;;;;;;5041262;28;20038;-70
2024/01/06 03:42:00;;;;;;;14.43;7.57;;;1.60;99.90;;;;;;5038682;28;20029;-70
2024/01/06 03:44:30;;;;;;;15.25;8.30;;;1.50;99.90;;;;;;5040813;28;20017;-71
2024/01/06 03:46:58;;;;;;;15.95;8.70;;;1.50;99.90;;;;;;5040913;28;20037;-67
2024/01/06 03:49:24;;;;;;;19.35;8.93;;;1.50;99.90;;;;;;5044685;28;20026;-69
2024/01/06 03:51:50;;;;;;;16.48;8.02;;;1.50;99.90;;;;;;5045372;28;20028;-70
2024/01/06 03:54:15;;;;;;;15.18;7.93;;;1.50;99.90;;;;;;5045117;28;20069;-69
2024/01/06 03:56:41;;;;;;;16.58;8.07;;;1.50;99.90;;;;;;5045558;28;20021;-70
2024/01/06 03:59:07;;;;;;;16.67;8.40;;;1.50;99.90;;;;;;5043308;28;20103;-68
2024/01/06 04:01:34;;;;;;;16.20;8.20;;;1.50;99.90;;;;;;5043020;28;20033;-68
2024/01/06 04:04:02;;;;;;;15.40;7.97;;;1.60;99.90;;;;;;5041216;28;20050;-70
2024/01/06 04:06:27;;;;;;;16.35;8.77;;;1.60;99.90;;;;;;5042628;28;20120;-69
2024/01/06 04:08:54;;;;;;;15.88;8.63;;;1.60;99.90;;;;;;5042627;28;20076;-69
2024/01/06 04:11:20;;;;;;;16.20;8.48;;;1.60;99.90;;;;;;5042909;28;20513;-69
2024/01/06 04:13:46;;;;;;;15.05;7.78;;;1.60;99.90;;;;;;5043953;28;20029;-69
2024/01/06 04:16:12;;;;;;;16.30;8.27;;;1.50;99.90;;;;;;5045225;28;20018;-69
2024/01/06 04:18:37;;;;;;;16.17;8.63;;;1.60;99.90;;;;;;5045098;28;20104;-71
2024/01/06 04:21:04;;;;;;;15.30;8.02;;;1.50;99.90;;;;;;5044630;28;20033;-70
2024/01/06 04:23:30;;;;;;;14.57;8.23;;;1.50;99.90;;;;;;5044975;28;20044;-70
2024/01/06 04:25:56;;;;;;;17.35;9.07;;;1.60;99.90;;;;;;5044179;28;20029;-70
2024/01/06 04:28:21;;;;;;;19.42;9.15;;;1.50;99.90;;;;;;5044778;28;20063;-68
2024/01/06 04:30:47;;;;;;;16.42;8.90;;;1.50;99.90;;;;;;5044368;28;20034;-70
2024/01/06 04:33:13;;;;;;;15.80;8.55;;;1.50;99.90;;;;;;5044526;28;20056;-69
2024/01/06 04:35:38;;;;;;;18.30;9.50;;;1.50;99.90;;;;;;5044685;28;20025;-68
2024/01/06 04:38:04;;;;;;;18.13;9.15;;;1.50;99.90;;;;;;5044718;28;20034;-69
2024/01/06 04:40:30;;;;;;;20.00;9.65;;;1.50;99.90;;;;;;5043864;28;20048;-70
2024/01/06 04:42:55;;;;;;;18.17;8.75;;;1.50;99.90;;;;;;5043622;28;20022;-71
2024/01/06 04:45:23;;;;;;;18.70;9.25;;;1.50;99.90;;;;;;5043422;28;20032;-70
2024/01/06 04:47:49;;;;;;;19.63;10.05;;;1.50;99.90;;;;;;5043645;28;20029;-71
2024/01/06 04:50:14;;;;;;;18.25;9.25;;;1.50;99.90;;;;;;5044575;28;20021;-69
2024/01/06 04:52:40;;;;;;;20.08;9.60;;;1.50;99.90;;;;;;5043060;28;20036;-70
2024/01/06 04:55:06;;;;;;;20.13;10.38;;;1.50;99.90;;;;;;5044026;28;20034;-69
2024/01/06 04:57:31;;;;;;;20.75;9.82;;;1.50;99.90;;;;;;5041722;28;20025;-72
2024/01/06 04:59:57;;;;;;;20.10;9.23;;;1.50;99.90;;;;;;5041242;28;20025;-70
2024/01/06 05:02:24;;;;;;;20.17;10.18;;;1.50;99.90;;;;;;5041481;28;20056;-70
2024/01/06 05:04:49;;;;;;;18.52;9.60;;;1.50;99.90;;;;;;5041642;28;20438;-71
2024/01/06 05:07:15;;;;;;;18.40;9.50;;;1.50;99.90;;;;;;5042044;28;20049;-70
2024/01/06 05:09:41;;;;;;;18.20;9.88;;;1.50;99.90;;;;;;5042164;28;20030;-71
2024/01/06 05:12:06;;;;;;;19.55;9.93;;;1.50;99.90;;;;;;5043653;28;20036;-69
2024/01/06 05:14:32;;;;;;;21.38;10.07;;;1.50;99.90;;;;;;5043780;28;20033;-69
2024/01/06 05:16:58;;;;;;;18.92;10.40;;;1.50;99.90;;;;;;5041981;28;20036;-71
2024/01/06 05:19:23;;;;;;;21.23;10.40;;;1.50;99.90;;;;;;5043286;28;20018;-71
2024/01/06 05:21:50;;;;;;;20.95;10.15;;;1.50;99.90;;;;;;5043335;28;20017;-72
2024/01/06 05:24:15;;;;;;;20.15;10.00;;;1.40;99.90;;;;;;5040678;28;20055;-70
2024/01/06 05:26:41;;;;;;;20.00;10.63;;;1.40;99.90;;;;;;5042195;28;20030;-71
2024/01/06 05:29:08;;;;;;;18.65;9.52;;;1.40;99.90;;;;;;5042253;28;20038;-70
2024/01/06 05:31:33;;;;;;;17.83;9.55;;;1.40;99.90;;;;;;5040820;28;20037;-69
2024/01/06 05:33:59;;;;;;;18.00;9.25;;;1.40;99.90;;;;;;5036985;28;20128;-70
2024/01/06 05:36:25;;;;;;;23.27;10.90;;;1.40;99.90;;;;;;5041104;28;20489;-70
2024/01/06 05:38:51;;;;;;;22.48;10.75;;;1.40;99.90;;;;;;5042130;28;20017;-70
2024/01/06 05:41:16;;;;;;;20.25;10.80;;;1.40;99.90;;;;;;5042080;28;20055;-70
2024/01/06 05:43:42;;;;;;;21.73;10.98;;;1.40;99.90;;;;;;5041873;28;20030;-70
2024/01/06 05:46:08;;;;;;;22.23;10.50;;;1.40;99.90;;;;;;5042239;28;20226;-69
2024/01/06 05:48:33;;;;;;;23.08;11.13;;;1.40;99.90;;;;;;5039868;28;20059;-70
2024/01/06 05:50:59;;;;;;;20.70;11.00;;;1.50;99.90;;;;;;5041901;28;20032;-70
2024/01/06 05:53:24;;;;;;;20.67;10.48;;;1.50;99.90;;;;;;5043441;28;20048;-71
2024/01/06 05:55:50;;;;;;;24.33;11.35;;;1.50;99.90;;;;;;5041232;28;20372;-71
2024/01/06 05:58:16;;;;;;;20.83;10.18;;;1.50;99.90;;;;;;5043148;28;20041;-69
2024/01/06 06:00:41;;;;;;;22.05;10.82;;;1.50;99.90;;;;;;5041381;28;20022;-70
2024/01/06 06:03:07;;;;;;;20.60;10.32;;;1.50;99.90;;;;;;5042033;28;20092;-71
2024/01/06 06:05:33;;;;;;;22.35;10.40;;;1.50;99.90;;;;;;5040177;28;20025;-72
2024/01/06 06:07:59;;;;;;;22.23;10.90;;;1.50;99.90;;;;;;5042931;28;20056;-70
2024/01/06 06:10:30;;;;;;;18.45;9.93;;;1.50;99.90;;;;;;5041537;28;20025;-70
2024/01/06 06:12:55;;;;;;;22.65;10.80;;;1.40;99.90;;;;;;5040542;28;20060;-71
2024/01/06 06:15:21;;;;;;;22.58;10.77;;;1.40;99.90;;;;;;5042423;28;20030;-70
2024/01/06 06:17:46;;;;;;;22.92;11.52;;;1.40;99.90;;;;;;5039551;28;20060;-72
2024/01/06 06:20:12;;;;;;;21.83;11.38;;;1.30;99.90;;;;;;5038887;28;20079;-70
2024/01/06 06:22:38;;;;;;;24.88;11.30;;;1.40;99.90;;;;;;5039420;28;20037;-72
2024/01/06 06:25:04;;;;;;;23.20;12.18;;;1.40;99.90;;;;;;5041557;28;20081;-69
2024/01/06 06:27:29;;;;;;;22.73;11.68;;;1.40;99.90;;;;;;5042686;28;20049;-69
2024/01/06 06:29:58;;;;;;;24.33;11.23;;;1.40;99.90;;;;;;5041523;28;20044;-69
2024/01/06 06:32:24;;;;;;;24.73;12.05;;;1.40;99.90;;;;;;5041340;28;20036;-69
2024/01/06 06:34:51;;;;;;;25.15;12.75;;;1.40;99.90;;;;;;5041250;28;20369;-70
2024/01/06 06:37:17;;;;;;;25.00;11.93;;;1.40;99.90;;;;;;5042370;28;20025;-71
2024/01/06 06:39:44;;;;;;;25.02;12.25;;;1.40;99.90;;;;;;5034003;28;20079;-73
2024/01/06 06:42:10;;;;;;;27.17;12.73;;;1.40;99.90;;;;;;5037589;28;20049;-67
2024/01/06 06:44:35;;;;;;;28.88;13.05;;;1.40;99.90;;;;;;5035459;28;20485;-70
2024/01/06 06:47:01;;;;;;;26.67;12.70;;;1.40;99.90;;;;;;5037605;28;20041;-69
2024/01/06 06:49:27;;;;;;;23.85;11.98;;;1.40;99.90;;;;;;5039300;28;20030;-71
2024/01/06 06:51:52;;;;;;;23.70;12.23;;;1.40;99.90;;;;;;5040060;28;20029;-70
2024/01/06 06:54:18;;;;;;;25.77;12.80;;;1.40;99.90;;;;;;5040948;28;20039;-71
2024/01/06 06:56:44;;;;;;;23.15;12.45;;;1.40;99.90;;;;;;5042202;28;20045;-69
2024/01/06 06:59:09;;;;;;;24.98;12.63;;;1.40;99.90;;;;;;5041787;28;20529;-72
2024/01/06 07:01:35;;;;;;;24.35;12.57;;;1.30;99.90;;;;;;5042163;28;20077;-68
2024/01/06 07:04:02;;;;;;;25.15;11.95;;;1.30;99.90;;;;;;5041861;28;20045;-68
2024/01/06 07:06:28;;;;;;;25.27;12.45;;;1.30;99.90;;;;;;5041680;28;20029;-70
2024/01/06 07:08:54;;;;;;;27.00;12.85;;;1.30;99.90;;;;;;5040529;28;20068;-68
2024/01/06 07:11:20;;;;;;;28.38;13.93;;;1.30;99.90;;;;;;5042053;28;20032;-68
2024/01/06 07:13:46;;;;;;;26.65;12.52;;;1.30;99.90;;;;;;5041649;28;20025;-70
2024/01/06 07:16:11;;;;;;;27.50;13.02;;;1.30;99.90;;;;;;5041764;28;20021;-70
2024/01/06 07:18:37;;;;;;;25.48;12.52;;;1.30;99.90;;;;;;5039264;28;20037;-69
2024/01/06 07:21:06;;;;;;;27.58;13.48;;;1.30;99.90;;;;;;5039143;28;20036;-69
2024/01/06 07:23:32;;;;;;;27.10;13.30;;;1.30;99.90;;;;;;5041520;28;20040;-71
2024/01/06 07:25:57;;;;;;;25.52;13.10;;;1.30;99.90;;;;;;5041686;28;20029;-70
2024/01/06 07:28:23;;;;;;;26.75;12.80;;;1.30;99.90;;;;;;5040954;28;20033;-70
2024/01/06 07:30:49;;;;;;;27.92;13.02;;;1.30;99.90;;;;;;5041713;28;20055;-70
2024/01/06 07:33:14;;;;;;;28.33;13.52;;;1.20;99.90;;;;;;5041428;28;20052;-68
2024/01/06 07:35:43;;;;;;;27.05;12.70;;;1.20;99.90;;;;;;5040840;28;20029;-68
2024/01/06 07:38:10;;;;;;;30.02;14.38;;;1.20;99.90;;;;;;5039668;28;20034;-68
2024/01/06 07:40:36;;;;;;;25.48;12.82;;;1.20;99.90;;;;;;5040283;28;20117;-69
2024/01/06 07:43:01;;;;;;;27.30;13.18;;;1.20;99.90;;;;;;5039495;28;20441;-67
2024/01/06 07:45:27;;;;;;;25.92;12.98;;;1.20;99.90;;;;;;5041835;28;20022;-68
2024/01/06 07:47:53;;;;;;;28.38;13.85;;;1.20;99.90;;;;;;5041564;28;20033;-67
2024/01/06 07:50:18;;;;;;;32.47;14.23;;;1.20;99.90;;;;;;5041073;28;20034;-68
2024/01/06 07:52:44;;;;;;;31.38;14.15;;;1.20;99.90;;;;;;5041570;28;20091;-69
2024/01/06 07:55:09;;;;;;;29.38;14.75;;;1.20;99.90;;;;;;5041502;28;20026;-69
2024/01/06 07:57:35;;;;;;;31.10;14.52;;;1.20;99.90;;;;;;5041177;28;20033;-69
2024/01/06 08:00:00;;;;;;;28.17;14.55;;;1.10;99.90;;;;;;5039095;28;20108;-68
2024/01/06 08:02:26;;;;;;;31.73;14.77;;;1.10;99.90;;;;;;5039413;28;20108;-68
2024/01/06 08:04:52;;;;;;;28.67;14.15;;;1.10;99.90;;;;;;5038921;28;20056;-68
2024/01/06 08:07:17;;;;;;;32.90;15.35;;;1.20;99.90;;;;;;5040699;28;20021;-70
2024/01/06 08:09:43;;;;;;;29.60;14.45;;;1.10;99.90;;;;;;5040216;28;20037;-72
2024/01/06 08:12:09;;;;;;;27.88;14.70;;;1.20;99.90;;;;;;5039922;28;20018;-69
2024/01/06 08:14:34;;;;;;;32.95;15.52;;;1.20;99.90;;;;;;5040695;28;20032;-69
2024/01/06 08:17:00;;;;;;;32.63;15.02;;;1.20;99.90;;;;;;5037468;28;20081;-71
2024/01/06 08:19:27;;;;;;;34.22;15.90;;;1.30;99.90;;;;;;5037813;28;20037;-69
2024/01/06 08:21:52;;;;;;;30.63;15.20;;;1.30;99.90;;;;;;5039118;28;20021;-68
2024/01/06 08:24:18;;;;;;;30.80;14.65;;;1.30;99.90;;;;;;5036378;28;20525;-68
2024/01/06 08:26:44;;;;;;;32.08;15.73;;;1.30;99.90;;;;;;5038736;28;20026;-68
2024/01/06 08:29:10;;;;;;;31.70;15.20;;;1.30;99.90;;;;;;5036866;28;20091;-68
2024/01/06 08:31:35;;;;;;;33.63;16.25;;;1.30;99.90;;;;;;5040723;28;20026;-68
2024/01/06 08:34:01;;;;;;;35.00;15.88;;;1.30;99.90;;;;;;5041066;28;20037;-68
2024/01/06 08:36:27;;;;;;;36.20;15.30;;;1.30;99.90;;;;;;5040147;28;20036;-70
2024/01/06 08:38:52;;;;;;;36.80;16.33;;;1.30;99.90;;;;;;5039882;28;20030;-69
2024/01/06 08:41:18;;;;;;;33.53;15.40;;;1.30;99.90;;;;;;5042007;28;20128;-68
2024/01/06 08:43:43;;;;;;;34.65;15.20;;;1.30;99.90;;;;;;5044747;28;20044;-68
2024/01/06 08:46:09;;;;;;;33.25;15.65;;;1.20;99.90;;;;;;5044052;28;20032;-71
2024/01/06 08:48:34;;;;;;;33.13;15.48;;;1.30;99.90;;;;;;5044522;28;20041;-68
2024/01/06 08:51:00;;;;;;;32.90;16.52;;;1.30;99.90;;;;;;5044576;28;20044;-69
2024/01/06 08:53:25;;;;;;;33.10;14.90;;;1.30;99.90;;;;;;5042824;28;20018;-67
2024/01/06 08:55:51;;;;;;;31.83;15.20;;;1.30;99.90;;;;;;5043116;28;20874;-69
2024/01/06 08:58:17;;;;;;;29.77;14.93;;;1.30;99.90;;;;;;5044411;28;20116;-69
2024/01/06 09:00:44;;;;;;;37.20;16.17;;;1.30;99.90;;;;;;5043821;28;20017;-68
2024/01/06 09:03:09;;;;;;;30.45;15.13;;;1.30;99.90;;;;;;5043481;28;20045;-69
2024/01/06 09:05:36;;;;;;;30.30;14.40;;;1.40;99.90;;;;;;5044257;28;20040;-69
2024/01/06 09:08:02;;;;;;;33.40;15.57;;;1.40;99.90;;;;;;5041467;28;20510;-68
2024/01/06 09:10:29;;;;;;;35.58;15.88;;;1.30;99.90;;;;;;5043870;28;20039;-70
2024/01/06 09:12:55;;;;;;;32.60;15.43;;;1.30;99.90;;;;;;5043465;28;20048;-69
2024/01/06 09:15:20;;;;;;;31.50;15.93;;;1.30;99.90;;;;;;5044071;28;20033;-67
2024/01/06 09:17:46;;;;;;;34.70;15.68;;;1.30;99.90;;;;;;5041356;28;20025;-69
2024/01/06 09:20:11;;;;;;;35.00;15.93;;;1.30;99.90;;;;;;5042193;28;20029;-70
2024/01/06 09:22:37;;;;;;;33.25;16.13;;;1.40;99.90;;;;;;5040632;28;20033;-71
2024/01/06 09:25:03;;;;;;;33.50;15.85;;;1.40;99.90;;;;;;5042534;28;20028;-72
2024/01/06 09:27:28;;;;;;;29.77;15.13;;;1.40;99.90;;;;;;5038661;28;20034;-69
2024/01/06 09:29:54;;;;;;;31.13;16.05;;;1.40;99.90;;;;;;5041622;28;20026;-69
2024/01/06 09:32:19;;;;;;;31.42;15.75;;;1.40;99.90;;;;;;5043033;28;20033;-68
2024/01/06 09:34:45;;;;;;;33.17;15.43;;;1.40;99.90;;;;;;5041192;28;20052;-69
2024/01/06 09:37:10;;;;;;;35.42;16.20;;;1.40;99.90;;;;;;5043002;28;20033;-69
2024/01/06 09:39:36;;;;;;;33.22;15.55;;;1.40;99.90;;;;;;5041430;28;20033;-69
2024/01/06 09:42:02;;;;;;;32.90;16.17;;;1.40;99.90;;;;;;5040651;28;20056;-70
2024/01/06 09:44:27;;;;;;;31.95;15.52;;;1.30;99.90;;;;;;5041428;28;20033;-71
2024/01/06 09:46:57;;;;;;;30.73;15.40;;;1.40;99.90;;;;;;5040286;28;20043;-72
2024/01/06 09:49:23;;;;;;;30.42;15.50;;;1.30;99.90;;;;;;5040871;28;20037;-68
2024/01/06 09:51:51;;;;;;;33.28;16.23;;;1.30;99.90;;;;;;5043468;28;20124;-71
2024/01/06 09:54:25;;;;;;;32.42;16.65;;;1.30;99.90;;;;;;5043296;28;20021;-69
2024/01/06 09:56:51;;;;;;;33.47;16.02;;;1.30;99.90;;;;;;5042854;28;20028;-70
2024/01/06 09:59:18;;;;;;;31.30;14.73;;;1.30;99.90;;;;;;5041858;28;20088;-69
2024/01/06 10:01:45;;;;;;;34.80;16.27;;;1.30;99.90;;;;;;5043067;28;20029;-68
2024/01/06 10:04:10;;;;;;;34.60;16.15;;;1.30;99.90;;;;;;5042179;28;20095;-69
2024/01/06 10:06:36;;;;;;;33.33;15.68;;;1.40;99.90;;;;;;5043052;28;20049;-69
2024/01/06 10:09:02;;;;;;;37.08;16.75;;;1.30;99.90;;;;;;5041315;28;20061;-69
2024/01/06 10:11:27;;;;;;;32.47;15.52;;;1.30;99.90;;;;;;5043034;28;20021;-68
2024/01/06 10:13:55;;;;;;;31.90;15.55;;;1.30;99.90;;;;;;5043080;28;20037;-70
2024/01/06 10:16:22;;;;;;;32.75;16.33;;;1.30;99.90;;;;;;5042566;28;20025;-67
2024/01/06 10:18:48;;;;;;;32.92;15.07;;;1.30;99.90;;;;;;5042853;28;20032;-69
2024/01/06 10:21:17;;;;;;;33.55;15.90;;;1.30;99.90;;;;;;5042689;28;20025;-69
2024/01/06 10:23:43;;;;;;;32.65;15.40;;;1.30;99.90;;;;;;5035525;28;20018;-71
2024/01/06 10:26:13;;;;;;;37.53;16.30;;;1.40;99.90;;;;;;5038527;28;20123;-68
2024/01/06 10:28:39;;;;;;;30.90;14.82;;;1.40;99.90;;;;;;5042701;28;20041;-70
2024/01/06 10:31:04;;;;;;;31.85;15.18;;;1.50;99.90;;;;;;5040838;28;20028;-72
2024/01/06 10:33:33;;;;;;;32.83;15.55;;;1.50;99.90;;;;;;5042928;28;20156;-70
2024/01/06 10:36:00;;;;;;;33.17;15.68;;;1.50;99.90;;;;;;5042526;28;20105;-70
2024/01/06 10:38:26;;;;;;;31.60;15.63;;;1.50;99.90;;;;;;5042200;28;20114;-69
2024/01/06 10:41:07;;;;;;;39.13;15.45;;;1.60;99.90;;;;;;5041200;28;20065;-72
2024/01/06 10:43:43;;;;;;;32.67;15.82;;;1.60;99.90;;;;;;5042573;28;20053;-70
2024/01/06 10:46:14;;;;;;;32.13;15.35;;;1.60;99.90;;;;;;5042325;28;20045;-69
2024/01/06 10:48:42;;;;;;;31.77;15.55;;;1.60;99.90;;;;;;5042421;28;20025;-71
2024/01/06 10:51:08;;;;;;;33.50;15.57;;;1.70;99.90;;;;;;5041617;28;20064;-69
2024/01/06 10:53:39;;;;;;;29.65;14.50;;;1.70;99.90;;;;;;5042277;28;20387;-70
2024/01/06 10:56:07;;;;;;;34.42;16.02;;;1.70;99.90;;;;;;5041415;28;20013;-67
2024/01/06 10:58:37;;;;;;;32.13;15.57;;;1.60;99.90;;;;;;5040750;28;20025;-68
2024/01/06 11:01:03;;;;;;;33.95;15.98;;;1.60;99.90;;;;;;5041975;28;20111;-68
2024/01/06 11:03:29;;;;;;;35.38;16.40;;;1.60;99.90;;;;;;5039687;28;20056;-69
2024/01/06 11:05:57;;;;;;;34.13;16.30;;;1.60;99.90;;;;;;5040049;28;20026;-68
2024/01/06 11:08:23;;;;;;;31.52;16.15;;;1.60;99.90;;;;;;5041657;28;20120;-70
2024/01/06 11:10:49;;;;;;;31.73;16.02;;;1.60;99.90;;;;;;5041894;28;20021;-70
2024/01/06 11:13:21;;;;;;;32.28;15.85;;;1.60;99.90;;;;;;5041734;28;20105;-69
2024/01/06 11:15:54;;;;;;;32.15;14.95;;;1.60;99.90;;;;;;5041879;28;20027;-67
2024/01/06 11:18:40;;;;;;;37.00;16.13;;;1.60;99.90;;;;;;5042032;28;20029;-68
2024/01/06 11:21:27;;;;;;;29.55;15.20;;;1.50;99.90;;;;;;5041893;28;20033;-69
2024/01/06 11:24:17;;;;;;;32.40;15.23;;;1.60;99.90;;;;;;5042148;28;20691;-67
2024/01/06 11:26:50;;;;;;;33.83;15.23;;;1.60;99.90;;;;;;5041315;28;20022;-71
2024/01/06 11:29:15;;;;;;;33.20;15.35;;;1.60;99.90;;;;;;5041956;28;20063;-67
2024/01/06 11:31:41;;;;;;;31.55;15.98;;;1.60;99.90;;;;;;5041798;28;20038;-67
2024/01/06 11:34:17;;;;;;;36.00;16.23;;;1.50;99.90;;;;;;5041565;28;20033;-67
2024/01/06 11:36:45;;;;;;;33.92;16.08;;;1.50;99.90;;;;;;5040392;28;20361;-68
2024/01/06 11:39:38;;;;;;;32.55;15.68;;;1.50;99.90;;;;;;5041342;28;20040;-68
2024/01/06 11:42:03;;;;;;;30.35;15.13;;;1.50;99.90;;;;;;5040724;28;20044;-70
2024/01/06 11:44:33;;;;;;;33.38;15.95;;;1.40;99.90;;;;;;5041822;28;20033;-68
2024/01/06 11:46:59;;;;;;;34.83;16.05;;;1.40;99.90;;;;;;5041254;28;20041;-69
2024/01/06 11:49:29;;;;;;;28.52;15.32;;;1.50;99.90;;;;;;5041736;28;20235;-69
2024/01/06 11:51:56;;;;;;;32.50;15.25;;;1.50;99.90;;;;;;5040031;28;20029;-69
2024/01/06 11:54:22;;;;;;;32.05;14.70;;;1.50;99.90;;;;;;5041454;28;20026;-69
2024/01/06 11:56:48;;;;;;;32.13;14.80;;;1.40;99.90;;;;;;5040325;28;20025;-70
2024/01/06 11:59:14;;;;;;;34.95;15.35;;;1.50;99.90;;;;;;5041673;28;20132;-68
2024/01/06 12:01:40;;;;;;;29.77;15.02;;;1.50;99.90;;;;;;5041372;28;20034;-69
2024/01/06 12:04:06;;;;;;;32.33;14.68;;;1.50;99.90;;;;;;5041451;28;20056;-68
2024/01/06 12:06:32;;;;;;;29.45;14.70;;;1.50;99.90;;;;;;5041148;28;20029;-71
2024/01/06 12:09:10;;;;;;;27.35;13.93;;;1.50;99.90;;;;;;5043360;28;20034;-72
2024/01/06 12:11:37;;;;;;;29.70;14.02;;;1.50;99.90;;;;;;5051967;28;20044;-68
2024/01/06 12:14:02;;;;;;;28.05;14.20;;;1.50;99.90;;;;;;5036834;28;20057;-70
2024/01/06 12:16:28;;;;;;;31.83;14.05;;;1.50;99.90;;;;;;5042677;28;20062;-68
2024/01/06 12:18:59;;;;;;;31.63;15.05;;;1.50;99.90;;;;;;5043009;28;20079;-69
2024/01/06 12:21:25;;;;;;;28.65;14.40;;;1.50;99.90;;;;;;5043972;28;20022;-71
2024/01/06 12:23:50;;;;;;;29.52;14.43;;;1.50;99.90;;;;;;5043445;28;20049;-71
2024/01/06 12:26:19;;;;;;;28.70;13.52;;;1.50;99.90;;;;;;5044437;28;20033;-70
2024/01/06 12:28:46;;;;;;;31.73;14.65;;;1.40;99.90;;;;;;5043637;28;20112;-69
2024/01/06 12:31:12;;;;;;;30.70;14.77;;;1.40;99.90;;;;;;5044170;28;20029;-69
2024/01/06 12:33:39;;;;;;;26.45;13.93;;;1.40;99.90;;;;;;5040520;28;20032;-71
2024/01/06 12:36:06;;;;;;;30.60;14.60;;;1.40;99.90;;;;;;5041567;28;20033;-69